sensor_id;sensor_type;location;lat;lon;timestamp;pressure;altitude;pressure_sealevel;temperature;humidity
75298;BME280;63896;45.990;18.688;2022-12-22T00:01:41;101015.53;;;1.26;92.35
75298;BME280;63896;45.990;18.688;2022-12-22T00:05:22;101018.84;;;1.28;92.20
75298;BME280;63896;45.990;18.688;2022-12-22T00:08:44;101017.06;;;1.38;91.94
75298;BME280;63896;45.990;18.688;2022-12-22T00:12:10;101021.06;;;1.23;91.95
75298;BME280;63896;45.990;18.688;2022-12-22T00:15:34;101020.19;;;1.32;92.15
75298;BME280;63896;45.990;18.688;2022-12-22T00:18:55;101023.91;;;1.20;92.19
75298;BME280;63896;45.990;18.688;2022-12-22T00:22:23;101028.75;;;1.06;93.04
75298;BME280;63896;45.990;18.688;2022-12-22T00:25:45;101029.16;;;1.01;92.82
75298;BME280;63896;45.990;18.688;2022-12-22T00:29:13;101033.41;;;1.02;92.25
75298;BME280;63896;45.990;18.688;2022-12-22T00:32:36;101033.97;;;0.96;93.04
75298;BME280;63896;45.990;18.688;2022-12-22T00:35:58;101031.38;;;0.96;93.37
75298;BME280;63896;45.990;18.688;2022-12-22T00:39:19;101029.72;;;0.95;93.72
75298;BME280;63896;45.990;18.688;2022-12-22T00:42:41;101036.44;;;0.98;93.75
75298;BME280;63896;45.990;18.688;2022-12-22T00:46:02;101021.44;;;0.90;93.78
75298;BME280;63896;45.990;18.688;2022-12-22T00:49:25;101022.28;;;0.81;94.14
75298;BME280;63896;45.990;18.688;2022-12-22T00:52:47;101016.34;;;0.79;93.59
75298;BME280;63896;45.990;18.688;2022-12-22T00:56:08;101009.34;;;0.79;93.99
75298;BME280;63896;45.990;18.688;2022-12-22T00:59:30;101020.75;;;0.78;93.84
75298;BME280;63896;45.990;18.688;2022-12-22T01:02:52;101003.97;;;0.71;94.24
75298;BME280;63896;45.990;18.688;2022-12-22T01:06:13;101010.69;;;0.74;94.46
75298;BME280;63896;45.990;18.688;2022-12-22T01:09:34;101019.50;;;0.82;94.13
75298;BME280;63896;45.990;18.688;2022-12-22T01:12:56;101018.97;;;0.79;93.62
75298;BME280;63896;45.990;18.688;2022-12-22T01:16:17;101016.47;;;0.77;93.69
75298;BME280;63896;45.990;18.688;2022-12-22T01:19:39;101008.38;;;0.71;93.32
75298;BME280;63896;45.990;18.688;2022-12-22T01:23:00;101021.03;;;0.75;93.18
75298;BME280;63896;45.990;18.688;2022-12-22T01:26:21;101010.84;;;0.72;92.94
75298;BME280;63896;45.990;18.688;2022-12-22T01:29:43;101018.69;;;0.72;92.78
75298;BME280;63896;45.990;18.688;2022-12-22T01:33:10;101015.25;;;0.72;92.79
75298;BME280;63896;45.990;18.688;2022-12-22T01:36:32;101024.91;;;0.81;92.40
75298;BME280;63896;45.990;18.688;2022-12-22T01:39:53;101024.59;;;0.93;91.56
75298;BME280;63896;45.990;18.688;2022-12-22T01:43:20;101023.53;;;1.06;90.92
75298;BME280;63896;45.990;18.688;2022-12-22T01:46:44;101015.41;;;1.18;90.49
75298;BME280;63896;45.990;18.688;2022-12-22T01:50:06;101020.47;;;1.01;91.37
75298;BME280;63896;45.990;18.688;2022-12-22T01:53:28;101022.41;;;0.99;90.85
75298;BME280;63896;45.990;18.688;2022-12-22T01:56:50;101008.94;;;1.03;90.35
75298;BME280;63896;45.990;18.688;2022-12-22T02:00:12;101018.16;;;0.98;90.40
75298;BME280;63896;45.990;18.688;2022-12-22T02:03:33;101030.09;;;0.90;91.02
75298;BME280;63896;45.990;18.688;2022-12-22T02:07:00;101038.66;;;0.92;91.32
75298;BME280;63896;45.990;18.688;2022-12-22T02:10:43;101027.38;;;0.92;90.29
75298;BME280;63896;45.990;18.688;2022-12-22T02:17:47;101020.78;;;0.88;90.06
75298;BME280;63896;45.990;18.688;2022-12-22T02:21:14;101021.31;;;0.91;90.58
75298;BME280;63896;45.990;18.688;2022-12-22T02:24:42;101016.09;;;0.91;90.75
75298;BME280;63896;45.990;18.688;2022-12-22T02:28:08;101013.06;;;0.86;91.29
75298;BME280;63896;45.990;18.688;2022-12-22T02:31:39;101019.25;;;0.95;90.84
75298;BME280;63896;45.990;18.688;2022-12-22T02:35:06;101008.53;;;0.88;90.56
75298;BME280;63896;45.990;18.688;2022-12-22T02:38:46;100992.03;;;0.88;90.72
75298;BME280;63896;45.990;18.688;2022-12-22T02:49:27;100993.41;;;0.82;91.22
75298;BME280;63896;45.990;18.688;2022-12-22T02:52:49;100993.81;;;0.97;91.04
75298;BME280;63896;45.990;18.688;2022-12-22T02:56:12;100987.63;;;1.17;90.38
75298;BME280;63896;45.990;18.688;2022-12-22T02:59:33;100985.44;;;1.22;89.01
75298;BME280;63896;45.990;18.688;2022-12-22T03:02:55;100989.56;;;1.15;89.12
75298;BME280;63896;45.990;18.688;2022-12-22T03:06:16;100985.72;;;1.00;90.42
75298;BME280;63896;45.990;18.688;2022-12-22T03:09:38;100987.75;;;1.25;89.38
75298;BME280;63896;45.990;18.688;2022-12-22T03:12:59;100979.63;;;1.28;88.83
75298;BME280;63896;45.990;18.688;2022-12-22T03:16:21;100988.56;;;1.35;88.47
75298;BME280;63896;45.990;18.688;2022-12-22T03:19:42;100993.69;;;1.27;88.89
75298;BME280;63896;45.990;18.688;2022-12-22T03:23:06;100991.50;;;1.04;90.35
75298;BME280;63896;45.990;18.688;2022-12-22T03:26:28;100992.84;;;1.17;89.68
75298;BME280;63896;45.990;18.688;2022-12-22T03:29:31;100984.72;;;1.30;89.69
75298;BME280;63896;45.990;18.688;2022-12-22T03:32:34;100986.94;;;1.34;88.56
75298;BME280;63896;45.990;18.688;2022-12-22T03:35:37;100993.13;;;1.33;88.20
75298;BME280;63896;45.990;18.688;2022-12-22T03:38:39;100992.66;;;1.48;88.51
75298;BME280;63896;45.990;18.688;2022-12-22T03:41:42;100987.84;;;1.53;88.53
75298;BME280;63896;45.990;18.688;2022-12-22T03:45:04;100990.69;;;1.69;86.28
75298;BME280;63896;45.990;18.688;2022-12-22T03:48:26;100986.31;;;1.60;87.06
75298;BME280;63896;45.990;18.688;2022-12-22T03:51:29;100982.31;;;1.56;87.76
75298;BME280;63896;45.990;18.688;2022-12-22T03:54:32;100978.59;;;1.68;86.82
75298;BME280;63896;45.990;18.688;2022-12-22T03:57:34;100978.19;;;1.63;87.28
75298;BME280;63896;45.990;18.688;2022-12-22T04:00:39;100971.63;;;1.49;87.82
75298;BME280;63896;45.990;18.688;2022-12-22T04:03:42;100978.78;;;1.28;88.27
75298;BME280;63896;45.990;18.688;2022-12-22T04:06:45;100980.47;;;1.29;88.48
75298;BME280;63896;45.990;18.688;2022-12-22T04:09:48;100969.19;;;1.19;89.29
75298;BME280;63896;45.990;18.688;2022-12-22T04:13:10;100969.03;;;1.30;89.35
75298;BME280;63896;45.990;18.688;2022-12-22T04:16:13;100982.78;;;1.41;88.07
75298;BME280;63896;45.990;18.688;2022-12-22T04:19:16;100983.56;;;1.52;88.28
75298;BME280;63896;45.990;18.688;2022-12-22T04:22:19;100982.63;;;1.53;87.68
75298;BME280;63896;45.990;18.688;2022-12-22T04:25:22;100978.38;;;1.42;88.87
75298;BME280;63896;45.990;18.688;2022-12-22T04:28:26;100974.91;;;1.51;87.98
75298;BME280;63896;45.990;18.688;2022-12-22T04:31:29;100976.44;;;1.44;88.29
75298;BME280;63896;45.990;18.688;2022-12-22T04:34:32;100982.63;;;1.53;88.12
75298;BME280;63896;45.990;18.688;2022-12-22T04:37:35;100983.84;;;1.58;87.57
75298;BME280;63896;45.990;18.688;2022-12-22T04:40:39;100981.91;;;1.70;87.07
75298;BME280;63896;45.990;18.688;2022-12-22T04:43:42;100975.97;;;1.68;86.64
75298;BME280;63896;45.990;18.688;2022-12-22T04:46:45;100977.63;;;1.69;87.04
75298;BME280;63896;45.990;18.688;2022-12-22T04:49:48;100975.84;;;1.69;86.66
75298;BME280;63896;45.990;18.688;2022-12-22T04:52:51;100977.50;;;1.61;86.64
75298;BME280;63896;45.990;18.688;2022-12-22T04:55:57;100980.66;;;1.64;86.62
75298;BME280;63896;45.990;18.688;2022-12-22T04:59:01;100974.84;;;1.70;86.33
75298;BME280;63896;45.990;18.688;2022-12-22T05:02:03;100975.38;;;1.83;85.07
75298;BME280;63896;45.990;18.688;2022-12-22T05:05:07;100977.88;;;1.75;85.39
75298;BME280;63896;45.990;18.688;2022-12-22T05:08:10;100968.53;;;1.73;86.10
75298;BME280;63896;45.990;18.688;2022-12-22T05:11:13;100959.91;;;1.53;86.66
75298;BME280;63896;45.990;18.688;2022-12-22T05:14:16;100961.72;;;1.43;86.57
75298;BME280;63896;45.990;18.688;2022-12-22T05:17:19;100963.94;;;1.38;87.19
75298;BME280;63896;45.990;18.688;2022-12-22T05:20:22;100965.19;;;1.24;87.61
75298;BME280;63896;45.990;18.688;2022-12-22T05:23:25;100975.06;;;1.40;87.17
75298;BME280;63896;45.990;18.688;2022-12-22T05:26:28;100966.56;;;1.38;87.54
75298;BME280;63896;45.990;18.688;2022-12-22T05:29:31;100965.03;;;1.45;87.03
75298;BME280;63896;45.990;18.688;2022-12-22T05:32:34;100962.28;;;1.37;86.65
75298;BME280;63896;45.990;18.688;2022-12-22T05:35:37;100960.91;;;1.42;86.70
75298;BME280;63896;45.990;18.688;2022-12-22T05:38:41;100958.97;;;1.54;86.84
75298;BME280;63896;45.990;18.688;2022-12-22T05:41:44;100960.03;;;1.61;86.31
75298;BME280;63896;45.990;18.688;2022-12-22T05:44:47;100968.84;;;1.60;86.88
75298;BME280;63896;45.990;18.688;2022-12-22T05:47:51;100964.84;;;1.56;87.16
75298;BME280;63896;45.990;18.688;2022-12-22T05:50:54;100969.28;;;1.36;87.93
75298;BME280;63896;45.990;18.688;2022-12-22T05:53:57;100970.50;;;1.52;87.59
75298;BME280;63896;45.990;18.688;2022-12-22T05:57:00;100962.66;;;1.61;87.06
75298;BME280;63896;45.990;18.688;2022-12-22T06:00:04;100963.84;;;1.67;87.04
75298;BME280;63896;45.990;18.688;2022-12-22T06:03:13;100965.31;;;1.79;85.94
75298;BME280;63896;45.990;18.688;2022-12-22T06:06:16;100963.78;;;1.86;85.12
75298;BME280;63896;45.990;18.688;2022-12-22T06:09:19;100963.06;;;1.93;85.49
75298;BME280;63896;45.990;18.688;2022-12-22T06:12:22;100966.25;;;1.87;85.18
75298;BME280;63896;45.990;18.688;2022-12-22T06:15:24;100965.44;;;1.87;85.17
75298;BME280;63896;45.990;18.688;2022-12-22T06:18:29;100960.19;;;1.97;84.34
75298;BME280;63896;45.990;18.688;2022-12-22T06:21:32;100958.19;;;2.08;83.72
75298;BME280;63896;45.990;18.688;2022-12-22T06:24:34;100964.28;;;1.99;84.14
75298;BME280;63896;45.990;18.688;2022-12-22T06:27:37;100965.16;;;2.17;83.29
75298;BME280;63896;45.990;18.688;2022-12-22T06:30:40;100957.78;;;2.30;82.33
75298;BME280;63896;45.990;18.688;2022-12-22T06:33:43;100967.53;;;2.11;83.25
75298;BME280;63896;45.990;18.688;2022-12-22T06:36:47;100975.81;;;2.33;83.24
75298;BME280;63896;45.990;18.688;2022-12-22T06:39:50;100977.50;;;2.25;83.47
75298;BME280;63896;45.990;18.688;2022-12-22T06:42:53;100977.59;;;2.33;83.36
75298;BME280;63896;45.990;18.688;2022-12-22T06:46:12;100983.84;;;1.95;85.46
75298;BME280;63896;45.990;18.688;2022-12-22T06:49:15;100976.44;;;2.18;84.05
75298;BME280;63896;45.990;18.688;2022-12-22T06:52:17;100977.38;;;2.26;83.69
75298;BME280;63896;45.990;18.688;2022-12-22T06:55:21;100976.56;;;2.26;84.19
75298;BME280;63896;45.990;18.688;2022-12-22T06:58:24;100974.88;;;2.07;85.36
75298;BME280;63896;45.990;18.688;2022-12-22T07:01:27;100978.09;;;2.19;84.43
75298;BME280;63896;45.990;18.688;2022-12-22T07:04:31;100981.03;;;2.16;84.59
75298;BME280;63896;45.990;18.688;2022-12-22T07:07:34;100984.25;;;2.00;84.67
75298;BME280;63896;45.990;18.688;2022-12-22T07:10:37;100979.88;;;1.91;85.33
75298;BME280;63896;45.990;18.688;2022-12-22T07:13:58;100979.06;;;1.90;85.86
75298;BME280;63896;45.990;18.688;2022-12-22T07:17:01;100965.84;;;1.92;85.27
75298;BME280;63896;45.990;18.688;2022-12-22T07:20:04;100955.94;;;2.13;84.32
75298;BME280;63896;45.990;18.688;2022-12-22T07:23:07;100964.91;;;2.11;84.86
75298;BME280;63896;45.990;18.688;2022-12-22T07:26:11;100963.56;;;2.07;85.75
75298;BME280;63896;45.990;18.688;2022-12-22T07:29:14;100972.78;;;2.11;84.98
75298;BME280;63896;45.990;18.688;2022-12-22T07:32:17;100969.56;;;2.17;84.18
75298;BME280;63896;45.990;18.688;2022-12-22T07:35:20;100964.28;;;2.26;84.26
75298;BME280;63896;45.990;18.688;2022-12-22T07:38:23;100957.50;;;2.33;84.81
75298;BME280;63896;45.990;18.688;2022-12-22T07:41:26;100955.31;;;2.29;84.90
75298;BME280;63896;45.990;18.688;2022-12-22T07:44:47;100959.91;;;2.17;85.40
75298;BME280;63896;45.990;18.688;2022-12-22T07:47:50;100952.38;;;2.14;85.73
75298;BME280;63896;45.990;18.688;2022-12-22T07:50:55;100950.09;;;2.02;86.15
75298;BME280;63896;45.990;18.688;2022-12-22T07:54:04;100947.00;;;2.16;85.78
75298;BME280;63896;45.990;18.688;2022-12-22T07:57:07;100942.63;;;2.07;86.35
75298;BME280;63896;45.990;18.688;2022-12-22T08:00:11;100950.88;;;2.12;86.13
75298;BME280;63896;45.990;18.688;2022-12-22T08:03:14;100944.00;;;2.28;85.24
75298;BME280;63896;45.990;18.688;2022-12-22T08:06:17;100935.72;;;2.33;85.31
75298;BME280;63896;45.990;18.688;2022-12-22T08:09:20;100928.69;;;2.51;84.11
75298;BME280;63896;45.990;18.688;2022-12-22T08:12:24;100928.28;;;2.73;83.59
75298;BME280;63896;45.990;18.688;2022-12-22T08:15:27;100924.06;;;2.80;82.93
75298;BME280;63896;45.990;18.688;2022-12-22T08:18:30;100929.16;;;3.00;83.09
75298;BME280;63896;45.990;18.688;2022-12-22T08:21:33;100930.00;;;3.26;82.15
75298;BME280;63896;45.990;18.688;2022-12-22T08:24:36;100926.22;;;3.28;82.33
75298;BME280;63896;45.990;18.688;2022-12-22T08:27:43;100921.34;;;3.59;80.54
75298;BME280;63896;45.990;18.688;2022-12-22T08:30:50;100924.50;;;3.37;81.46
75298;BME280;63896;45.990;18.688;2022-12-22T08:33:55;100930.47;;;3.47;81.01
75298;BME280;63896;45.990;18.688;2022-12-22T08:37:02;100923.41;;;3.48;82.02
75298;BME280;63896;45.990;18.688;2022-12-22T08:40:12;100904.56;;;3.78;80.25
75298;BME280;63896;45.990;18.688;2022-12-22T08:43:17;100886.56;;;3.91;79.52
75298;BME280;63896;45.990;18.688;2022-12-22T08:46:20;100881.47;;;3.90;79.96
75298;BME280;63896;45.990;18.688;2022-12-22T08:49:25;100895.97;;;4.10;79.39
75298;BME280;63896;45.990;18.688;2022-12-22T08:52:29;100905.09;;;4.40;78.29
75298;BME280;63896;45.990;18.688;2022-12-22T08:55:32;100892.94;;;4.47;78.38
75298;BME280;63896;45.990;18.688;2022-12-22T08:58:35;100886.19;;;4.44;78.43
75298;BME280;63896;45.990;18.688;2022-12-22T09:01:40;100892.44;;;4.43;78.95
75298;BME280;63896;45.990;18.688;2022-12-22T09:04:47;100884.69;;;4.33;79.28
75298;BME280;63896;45.990;18.688;2022-12-22T09:07:50;100903.47;;;4.63;77.67
75298;BME280;63896;45.990;18.688;2022-12-22T09:10:53;100905.59;;;4.67;78.33
75298;BME280;63896;45.990;18.688;2022-12-22T09:13:57;100901.63;;;5.36;75.50
75298;BME280;63896;45.990;18.688;2022-12-22T09:17:00;100888.66;;;5.18;76.27
75298;BME280;63896;45.990;18.688;2022-12-22T09:20:04;100884.41;;;5.17;75.56
75298;BME280;63896;45.990;18.688;2022-12-22T09:23:07;100886.06;;;4.94;77.06
75298;BME280;63896;45.990;18.688;2022-12-22T09:26:12;100889.50;;;4.87;77.42
75298;BME280;63896;45.990;18.688;2022-12-22T09:29:16;100902.47;;;4.64;78.67
75298;BME280;63896;45.990;18.688;2022-12-22T09:32:19;100929.56;;;4.64;79.07
75298;BME280;63896;45.990;18.688;2022-12-22T09:35:21;100947.13;;;4.40;80.64
75298;BME280;63896;45.990;18.688;2022-12-22T09:38:26;100944.00;;;4.52;80.60
75298;BME280;63896;45.990;18.688;2022-12-22T09:44:47;100940.91;;;4.65;80.47
75298;BME280;63896;45.990;18.688;2022-12-22T09:47:52;100941.06;;;4.55;80.58
75298;BME280;63896;45.990;18.688;2022-12-22T09:50:56;100943.84;;;4.54;80.75
75298;BME280;63896;45.990;18.688;2022-12-22T09:54:00;100946.81;;;4.75;79.54
75298;BME280;63896;45.990;18.688;2022-12-22T09:57:07;100940.13;;;5.13;78.30
75298;BME280;63896;45.990;18.688;2022-12-22T10:00:19;100941.09;;;5.36;77.28
75298;BME280;63896;45.990;18.688;2022-12-22T10:03:55;100923.69;;;5.82;75.89
75298;BME280;63896;45.990;18.688;2022-12-22T10:10:22;100895.47;;;7.21;70.01
75298;BME280;63896;45.990;18.688;2022-12-22T10:13:28;100880.63;;;10.23;61.98
75298;BME280;63896;45.990;18.688;2022-12-22T10:16:31;100874.69;;;11.72;54.89
75298;BME280;63896;45.990;18.688;2022-12-22T10:19:34;100878.03;;;11.41;55.07
75298;BME280;63896;45.990;18.688;2022-12-22T10:29:17;100854.69;;;7.82;65.89
75298;BME280;63896;45.990;18.688;2022-12-22T10:32:20;100856.88;;;7.19;68.40
75298;BME280;63896;45.990;18.688;2022-12-22T10:35:24;100852.53;;;6.75;69.86
75298;BME280;63896;45.990;18.688;2022-12-22T10:38:29;100847.69;;;7.59;67.98
75298;BME280;63896;45.990;18.688;2022-12-22T10:41:40;100836.31;;;8.73;65.07
75298;BME280;63896;45.990;18.688;2022-12-22T10:44:46;100826.97;;;8.98;62.58
75298;BME280;63896;45.990;18.688;2022-12-22T10:47:53;100821.06;;;10.98;57.20
75298;BME280;63896;45.990;18.688;2022-12-22T10:50:58;100827.41;;;11.87;53.48
75298;BME280;63896;45.990;18.688;2022-12-22T10:54:02;100819.22;;;10.33;58.83
75298;BME280;63896;45.990;18.688;2022-12-22T10:57:21;100819.78;;;12.85;50.95
75298;BME280;63896;45.990;18.688;2022-12-22T11:00:28;100819.72;;;13.89;47.60
75298;BME280;63896;45.990;18.688;2022-12-22T11:03:31;100808.19;;;16.04;42.15
75298;BME280;63896;45.990;18.688;2022-12-22T11:06:35;100794.59;;;16.39;41.31
75298;BME280;63896;45.990;18.688;2022-12-22T11:09:38;100794.41;;;15.44;42.84
75298;BME280;63896;45.990;18.688;2022-12-22T11:39:03;100747.72;;;19.01;34.58
75298;BME280;63896;45.990;18.688;2022-12-22T11:55:32;100728.31;;;18.94;34.49
75298;BME280;63896;45.990;18.688;2022-12-22T11:59:44;100734.63;;;20.27;32.87
75298;BME280;63896;45.990;18.688;2022-12-22T12:29:19;100710.78;;;16.55;40.32
75298;BME280;63896;45.990;18.688;2022-12-22T12:32:46;100711.16;;;16.81;40.11
75298;BME280;63896;45.990;18.688;2022-12-22T12:35:55;100714.78;;;15.75;42.62
75298;BME280;63896;45.990;18.688;2022-12-22T12:40:00;100715.63;;;15.23;43.27
75298;BME280;63896;45.990;18.688;2022-12-22T12:42:52;100711.88;;;14.50;45.26
75298;BME280;63896;45.990;18.688;2022-12-22T12:45:57;100703.31;;;15.91;42.29
75298;BME280;63896;45.990;18.688;2022-12-22T12:49:00;100697.81;;;13.30;47.90
75298;BME280;63896;45.990;18.688;2022-12-22T12:52:07;100703.09;;;12.32;51.30
75298;BME280;63896;45.990;18.688;2022-12-22T12:58:51;100691.03;;;11.80;53.47
75298;BME280;63896;45.990;18.688;2022-12-22T13:01:57;100700.53;;;11.19;55.08
75298;BME280;63896;45.990;18.688;2022-12-22T13:05:12;100709.03;;;10.63;56.87
75298;BME280;63896;45.990;18.688;2022-12-22T13:08:28;100709.88;;;10.37;57.90
75298;BME280;63896;45.990;18.688;2022-12-22T13:11:36;100707.59;;;9.95;60.00
75298;BME280;63896;45.990;18.688;2022-12-22T13:14:59;100696.97;;;9.82;60.08
75298;BME280;63896;45.990;18.688;2022-12-22T13:21:28;100684.41;;;9.30;62.81
75298;BME280;63896;45.990;18.688;2022-12-22T13:24:53;100685.13;;;8.70;65.04
75298;BME280;63896;45.990;18.688;2022-12-22T13:27:57;100688.59;;;8.42;65.75
75298;BME280;63896;45.990;18.688;2022-12-22T13:41:32;100708.34;;;8.46;67.32
75298;BME280;63896;45.990;18.688;2022-12-22T13:44:37;100699.09;;;8.57;66.83
75298;BME280;63896;45.990;18.688;2022-12-22T13:47:44;100703.03;;;8.19;67.70
75298;BME280;63896;45.990;18.688;2022-12-22T13:50:59;100705.50;;;7.99;68.60
75298;BME280;63896;45.990;18.688;2022-12-22T13:54:33;100698.50;;;7.70;69.31
75298;BME280;63896;45.990;18.688;2022-12-22T13:57:34;100699.44;;;7.62;69.50
75298;BME280;63896;45.990;18.688;2022-12-22T14:00:37;100701.91;;;7.64;69.63
75298;BME280;63896;45.990;18.688;2022-12-22T14:03:57;100705.81;;;7.32;71.27
75298;BME280;63896;45.990;18.688;2022-12-22T14:07:16;100702.84;;;7.06;72.52
75298;BME280;63896;45.990;18.688;2022-12-22T14:10:33;100702.41;;;7.02;72.76
75298;BME280;63896;45.990;18.688;2022-12-22T14:13:36;100697.84;;;6.96;73.10
75298;BME280;63896;45.990;18.688;2022-12-22T14:16:45;100702.13;;;6.83;73.61
75298;BME280;63896;45.990;18.688;2022-12-22T14:19:52;100707.94;;;6.63;74.14
75298;BME280;63896;45.990;18.688;2022-12-22T14:26:25;100709.38;;;6.37;76.42
75298;BME280;63896;45.990;18.688;2022-12-22T14:29:30;100711.06;;;6.30;76.45
75298;BME280;63896;45.990;18.688;2022-12-22T14:32:47;100709.03;;;6.17;76.46
75298;BME280;63896;45.990;18.688;2022-12-22T14:36:21;100718.53;;;6.03;78.26
75298;BME280;63896;45.990;18.688;2022-12-22T14:39:27;100713.03;;;5.90;78.83
75298;BME280;63896;45.990;18.688;2022-12-22T14:42:33;100718.97;;;5.84;79.45
75298;BME280;63896;45.990;18.688;2022-12-22T14:45:36;100716.56;;;5.74;79.57
75298;BME280;63896;45.990;18.688;2022-12-22T14:48:44;100708.69;;;5.74;79.34
75298;BME280;63896;45.990;18.688;2022-12-22T14:51:54;100698.72;;;5.62;82.15
75298;BME280;63896;45.990;18.688;2022-12-22T14:55:05;100704.19;;;5.52;83.50
75298;BME280;63896;45.990;18.688;2022-12-22T14:58:13;100710.50;;;5.43;82.41
75298;BME280;63896;45.990;18.688;2022-12-22T15:01:20;100701.00;;;5.34;84.79
75298;BME280;63896;45.990;18.688;2022-12-22T15:04:23;100696.81;;;5.25;84.76
75298;BME280;63896;45.990;18.688;2022-12-22T15:07:26;100701.28;;;5.16;85.63
75298;BME280;63896;45.990;18.688;2022-12-22T15:10:51;100702.75;;;5.11;86.11
75298;BME280;63896;45.990;18.688;2022-12-22T15:13:54;100692.13;;;5.04;86.34
75298;BME280;63896;45.990;18.688;2022-12-22T15:16:59;100706.59;;;5.00;86.75
75298;BME280;63896;45.990;18.688;2022-12-22T15:20:03;100702.81;;;4.95;87.07
75298;BME280;63896;45.990;18.688;2022-12-22T15:23:14;100693.97;;;4.88;87.14
75298;BME280;63896;45.990;18.688;2022-12-22T15:26:19;100702.38;;;4.83;86.84
75298;BME280;63896;45.990;18.688;2022-12-22T15:29:22;100707.94;;;4.88;87.15
75298;BME280;63896;45.990;18.688;2022-12-22T15:32:25;100714.16;;;4.95;86.55
75298;BME280;63896;45.990;18.688;2022-12-22T15:35:39;100712.19;;;4.97;86.37
75298;BME280;63896;45.990;18.688;2022-12-22T15:38:42;100710.19;;;5.07;85.84
75298;BME280;63896;45.990;18.688;2022-12-22T15:41:46;100712.44;;;5.18;85.40
75298;BME280;63896;45.990;18.688;2022-12-22T15:44:49;100724.22;;;5.31;84.84
75298;BME280;63896;45.990;18.688;2022-12-22T15:47:53;100725.88;;;5.32;84.93
75298;BME280;63896;45.990;18.688;2022-12-22T15:50:57;100725.00;;;5.39;85.03
75298;BME280;63896;45.990;18.688;2022-12-22T15:54:02;100720.06;;;5.44;84.79
75298;BME280;63896;45.990;18.688;2022-12-22T15:57:08;100720.53;;;5.48;84.74
75298;BME280;63896;45.990;18.688;2022-12-22T16:00:13;100730.25;;;5.39;85.55
75298;BME280;63896;45.990;18.688;2022-12-22T16:03:16;100717.28;;;5.38;85.89
75298;BME280;63896;45.990;18.688;2022-12-22T16:06:20;100714.78;;;5.44;85.57
75298;BME280;63896;45.990;18.688;2022-12-22T16:09:25;100723.66;;;5.43;86.07
75298;BME280;63896;45.990;18.688;2022-12-22T16:12:29;100719.28;;;5.36;86.99
75298;BME280;63896;45.990;18.688;2022-12-22T16:15:33;100728.25;;;5.41;86.65
75298;BME280;63896;45.990;18.688;2022-12-22T16:18:36;100723.72;;;5.35;86.98
75298;BME280;63896;45.990;18.688;2022-12-22T16:21:41;100721.22;;;5.34;86.83
75298;BME280;63896;45.990;18.688;2022-12-22T16:24:46;100725.22;;;5.21;87.99
75298;BME280;63896;45.990;18.688;2022-12-22T16:27:50;100729.50;;;5.22;87.91
75298;BME280;63896;45.990;18.688;2022-12-22T16:30:54;100733.66;;;5.17;88.17
75298;BME280;63896;45.990;18.688;2022-12-22T16:33:58;100731.66;;;5.19;88.31
75298;BME280;63896;45.990;18.688;2022-12-22T16:37:01;100734.66;;;5.08;88.87
75298;BME280;63896;45.990;18.688;2022-12-22T16:40:04;100726.69;;;4.93;90.50
75298;BME280;63896;45.990;18.688;2022-12-22T16:46:48;100735.88;;;4.89;90.62
75298;BME280;63896;45.990;18.688;2022-12-22T16:49:51;100743.59;;;4.91;91.16
75298;BME280;63896;45.990;18.688;2022-12-22T16:52:54;100730.63;;;4.89;91.31
75298;BME280;63896;45.990;18.688;2022-12-22T16:55:58;100731.09;;;5.01;90.71
75298;BME280;63896;45.990;18.688;2022-12-22T16:59:02;100734.31;;;5.11;89.97
75298;BME280;63896;45.990;18.688;2022-12-22T17:02:20;100729.94;;;4.95;90.17
75298;BME280;63896;45.990;18.688;2022-12-22T17:05:31;100731.09;;;5.01;90.44
75298;BME280;63896;45.990;18.688;2022-12-22T17:08:45;100725.81;;;5.09;90.10
75298;BME280;63896;45.990;18.688;2022-12-22T17:11:48;100727.31;;;4.95;90.50
75298;BME280;63896;45.990;18.688;2022-12-22T17:14:53;100732.88;;;5.00;90.70
75298;BME280;63896;45.990;18.688;2022-12-22T17:17:56;100732.78;;;4.86;91.04
75298;BME280;63896;45.990;18.688;2022-12-22T17:20:59;100715.53;;;4.75;92.09
75298;BME280;63896;45.990;18.688;2022-12-22T17:24:03;100723.59;;;4.82;91.85
75298;BME280;63896;45.990;18.688;2022-12-22T17:27:06;100721.13;;;4.80;91.51
75298;BME280;63896;45.990;18.688;2022-12-22T17:30:19;100716.19;;;4.85;91.54
75298;BME280;63896;45.990;18.688;2022-12-22T17:33:22;100712.56;;;4.94;91.93
75298;BME280;63896;45.990;18.688;2022-12-22T17:36:34;100716.63;;;4.97;91.61
75298;BME280;63896;45.990;18.688;2022-12-22T17:39:39;100713.69;;;4.92;92.04
75298;BME280;63896;45.990;18.688;2022-12-22T17:42:42;100715.97;;;4.95;91.63
75298;BME280;63896;45.990;18.688;2022-12-22T17:45:45;100722.38;;;5.00;90.97
75298;BME280;63896;45.990;18.688;2022-12-22T17:48:49;100715.28;;;5.09;91.54
75298;BME280;63896;45.990;18.688;2022-12-22T17:51:52;100719.91;;;4.99;91.90
75298;BME280;63896;45.990;18.688;2022-12-22T17:54:55;100715.13;;;5.02;91.13
75298;BME280;63896;45.990;18.688;2022-12-22T17:57:57;100719.25;;;4.97;91.92
75298;BME280;63896;45.990;18.688;2022-12-22T18:01:00;100717.09;;;5.08;91.47
75298;BME280;63896;45.990;18.688;2022-12-22T18:04:03;100716.16;;;4.93;91.72
75298;BME280;63896;45.990;18.688;2022-12-22T18:07:13;100720.09;;;4.97;91.31
75298;BME280;63896;45.990;18.688;2022-12-22T18:10:32;100729.44;;;5.00;91.72
75298;BME280;63896;45.990;18.688;2022-12-22T18:13:36;100733.53;;;5.02;91.47
75298;BME280;63896;45.990;18.688;2022-12-22T18:16:39;100737.94;;;5.10;91.66
75298;BME280;63896;45.990;18.688;2022-12-22T18:19:42;100729.03;;;5.19;91.48
75298;BME280;63896;45.990;18.688;2022-12-22T18:22:45;100729.03;;;5.19;91.19
75298;BME280;63896;45.990;18.688;2022-12-22T18:25:48;100723.13;;;5.17;91.58